Glen Avon, Illinois
Current Conditions -  °F | °C
As of 8:10 PM on Monday 22 Dec 2014 (Local Time) from KTIP Reporting Station
Light Rain Light Rain  
Wind Chill: 38°   Ceiling: 500
Heat Index: 46°   Visibility: 4mi
Dew Point: 45°   Wind: 17mph
Humidity: 97%   Direction: 130°SE
Pressure: 29.6"   Gusts: 21mph
Location:  40.3398°N, 88.5173°W
Report Text: KTIP 230210Z AUTO 13015G18KT 4SM -RA OVC005 08/07 A2960 RMK AO2 T00750070
Loading
Personal Weather Stations






























Interactive Weather Map New forecast layout! Learn more

10-Day Weather Forecast

Advertisements
Track Severe Weather on mobile